Norfolk, Virginia
Traffic Map
Current Weather Conditions
Norfolk, Virginia
Broken Clouds
Broken Clouds
85°
Feels Like: 90°
Wind Chill: 85° Ceiling: 3400
Heat Index: 90° Visibility: 10mi
Dew Point: 71° Wind: 15mph
Humidity: 63% Direction: 210° (SSW)
Pressure: 29.94in Gusts: 25mph
Raw Report DataKORF 261551Z 21013G22KT 10SM BKN034 29/22 A2994 RMK AO2 SLP138 T02940217
Traffic Incident Summary
Active as of:
Severity:
Category:
InformationThere was an issue retrieving the traffic information for this location. Please try a different location or try again shortly.
Advertisements